ADDS METAR Data INFO
IDs: Format: Raw Decoded Include TAF

Data at: 1133 UTC 29 May 2017

KBMQ 291104Z AUTO 02004KT 9SM SCT007 OVC012 21/19 A3001 RMK AO2 T02060189 $
KBMQ 291053Z AUTO 02003KT 9SM BKN006 OVC012 21/19 A3001 RMK AO2 CIG 005V010 SLP148 T02060189 $
KBMQ 291020Z AUTO 06004KT 9SM BKN006 BKN010 BKN016 20/19 A3002 RMK AO2 T02000189 $
KBMQ 291010Z AUTO 03004KT 9SM BKN007 OVC015 21/19 A3002 RMK AO2 CIG 005V011 T02060189 $
KBMQ 290953Z AUTO 06005KT 10SM BKN006 OVC014 21/19 A3002 RMK AO2 CIG 005V009 SLP148 T02060189 $
KBMQ 290920Z AUTO 06005KT 10SM OVC006 21/19 A3002 RMK AO2 CIG 005V010 T02060189 $
KBMQ 290902Z AUTO 06006KT 10SM OVC008 21/19 A3001 RMK AO2 CIG 005V011 T02060189 $
KBMQ 290853Z AUTO 03005KT 10SM BKN006 OVC010 21/19 A3000 RMK AO2 SLP141 T02060189 56004 $
KBMQ 290843Z AUTO 02005KT 10SM OVC006 21/19 A3000 RMK AO2 T02060189 $
KBMQ 290824Z AUTO 00000KT 10SM BKN008 20/19 A3001 RMK AO2 T02000189 $
KBMQ 290816Z AUTO 00000KT 10SM SCT008 20/18 A3001 RMK AO2 T02000183 $
KBMQ 290753Z AUTO 00000KT 10SM CLR 20/18 A3001 RMK AO2 SLP144 T02000183 $
KBMQ 290653Z AUTO 01007KT 10SM CLR 20/18 A3000 RMK AO2 SLP141 T02000183 $
KBMQ 290553Z AUTO 01007KT 10SM FEW006 21/19 A3001 RMK AO2 RAE37 SLP146 P0000 60005 T02060189 10228 20200 403110200 58004 $
KBMQ 290550Z AUTO 36008KT 10SM FEW006 SCT040 21/19 A3002 RMK AO2 RAE37 P0000 $
KBMQ 290513Z AUTO 15007KT 10SM -RA FEW012 SCT120 21/19 A3003 RMK AO2 PRESFR P0000 T02060189 $
KBMQ 290453Z AUTO 21008KT 10SM -RA FEW007 BKN013 BKN070 21/19 A3008 RMK AO2 RAE0358B40 SLP169 P0000 T02060189 $
KBMQ 290445Z AUTO 31003KT 10SM -RA BKN007 BKN080 OVC120 21/19 A3007 RMK AO2 RAE0358B40 CIG 006V013 P0000 T02060189 $
KBMQ 290437Z AUTO VRB03G15KT 10SM SCT008 BKN080 OVC095 21/19 A3006 RMK AO2 RAE0358 P0000 T02060189 $
KBMQ 290353Z AUTO 02008KT 10SM -RA FEW100 21/19 A3003 RMK AO2 RAB42 SLP151 P0000 T02060189 $
KBMQ 290253Z AUTO 04009KT 10SM CLR 20/18 A2999 RMK AO2 LTG DSNT ALQDS SLP139 60005 T02000183 51032 $
KBMQ 290237Z AUTO 04010G18KT 10SM FEW100 21/18 A2997 RMK AO2 LTG DSNT NW-NE T02060183 $
KBMQ 290222Z AUTO 02010KT 10SM VCTS BKN100 BKN110 21/19 A2999 RMK AO2 LTG DSNT NW-E T02060189 $
KBMQ 290212Z AUTO 03012KT 10SM OVC100 21/19 A2997 RMK AO2 LTG DSNT NW-NE T02060189 $
KBMQ 290153Z AUTO 02008KT 10SM VCTS BKN095 22/20 A2998 RMK AO2 LTG DSNT W-NE RAE52 SLP137 P0004 T02170200 $
KBMQ 290139Z AUTO 01008KT 10SM VCTS -RA FEW013 SCT080 SCT100 22/20 A2998 RMK AO2 LTG DSNT ALQDS P0004 T02170200 $
KBMQ 290130Z AUTO 03006KT 10SM -RA SCT013 SCT039 BKN080 23/21 A2997 RMK AO2 LTG DSNT ALQDS P0004 T02280211 $
KBMQ 290108Z AUTO 14004KT 7SM VCTS RA BKN011 BKN040 OVC120 23/21 A2997 RMK AO2 LTG DSNT ALQDS P0001 T02280211 $
KBMQ 290053Z AUTO 02005KT 9SM -RA FEW019 BKN039 BKN085 23/21 A2999 RMK AO2 WSHFT 0013 LTG DSNT ALQDS RAB08 SLP138 P0001 T02280211 $
KBMQ 290045Z AUTO 36010KT 10SM VCTS -RA FEW011 SCT020 BKN039 23/21 A3000 RMK AO2 WSHFT 0013 LTG DSNT ALQDS RAB08 P0000 T02280211 $
KBMQ 290027Z AUTO 33011G21KT 10SM VCTS -RA FEW012 BKN016 BKN100 23/21 A2998 RMK AO2 WSHFT 0013 LTG DSNT ALQDS RAB08 PRESRR P0000 T02280211 $
KBMQ 282353Z AUTO 11004KT 10SM VCTS 23/21 A2989 RMK AO2 LTG DSNT ALQDS RAB24B39E52 TSE47 PRESFR SLP107 P0010 60010 T02280211 10311 20228 $
KBMQ 282336Z AUTO 06010KT TS 23/21 A2993 RMK AO2 LTG DSNT ALQDS RAB24 P0008 T02280211 PWINO $
KBMQ 282253Z AUTO VRB06G15KT 10SM TS FEW015 FEW050 24/21 A2995 RMK AO2 LTG DSNT E-SW RAE2158 TSE11B30 SLP127 P0000 T02390206
KBMQ 282230Z AUTO 01011G19KT 10SM TS SCT017 BKN050 24/21 A2996 RMK AO2 LTG DSNT E-SW RAE2158 TSE11B30 P0000 T02440206
KBMQ 282217Z AUTO 36013G20KT 10SM VCTS FEW019 SCT033 25/21 A2994 RMK AO2 LTG DSNT ALQDS RAE2158 TSE11 P0000 T02500206
KBMQ 282153Z AUTO 36010G19KT 10SM -TSRA BKN033 26/22 A2992 RMK AO2 LTG DSNT ALQDS RAB23E32B42 TSB30 SLP114 P0000 T02610217
KBMQ 282136Z AUTO 02009G18KT 10SM TS BKN035 BKN048 BKN120 27/22 A2992 RMK AO2 LTG DSNT ALQDS RAB23E32 TSB30 P0000 T02720217
KBMQ 282053Z AUTO 04009KT 10SM BKN030 OVC037 30/22 A2994 RMK AO2 SLP118 T03000222 58006
KBMQ 281953Z AUTO VRB06KT 10SM OVC034 31/22 A2995 RMK AO2 SLP122 T03060222
KBMQ 281853Z AUTO 15004KT 10SM OVC031 30/22 A2995 RMK AO2 SLP123 T03000217
KBMQ 281753Z AUTO 15005KT 10SM FEW030 BKN039 30/22 A2995 RMK AO2 SLP123 T03000217 10306 20222 51004
KBMQ 281653Z AUTO 16003KT 10SM CLR 29/22 A2995 RMK AO2 SLP122 T02940222
KBMQ 281553Z AUTO 17005KT 10SM CLR 28/22 A2995 RMK AO2 SLP121 T02830217
KBMQ 281453Z AUTO 19004KT 10SM CLR 27/22 A2994 RMK AO2 SLP119 T02720217 50017
KBMQ 281353Z AUTO 00000KT 9SM CLR 26/22 A2994 RMK AO2 SLP119 T02560217
KBMQ 281253Z AUTO 01004KT 7SM FEW070 24/21 A2995 RMK AO2 SLP121 T02390211
KBMQ 281153Z AUTO 20004KT 5SM BR CLR 22/21 A2989 RMK AO2 SLP101 T02220211 10256 20222 53010
KBMQ 281053Z AUTO 21004KT 7SM CLR 22/21 A2987 RMK AO2 SLP094 T02220211
KBMQ 280953Z AUTO 20005KT 8SM CLR 23/21 A2987 RMK AO2 SLP094 T02280211
KBMQ 280853Z AUTO 21006KT 10SM CLR 23/21 A2986 RMK AO2 SLP091 T02330211 53001
KBMQ 280753Z AUTO 20008KT 10SM CLR 24/22 A2985 RMK AO2 SLP087 T02390217
KBMQ 280653Z AUTO 20009KT 10SM CLR 24/22 A2986 RMK AO2 LTG DSNT NE SLP091 T02440217
KBMQ 280553Z AUTO VRB05KT 10SM CLR 26/22 A2985 RMK AO2 SLP089 T02560222 10306 20256 403330244 58006
KBMQ 280528Z AUTO 16008G14KT 10SM VCTS CLR 26/22 A2986 RMK AO2 PRESFR T02610222
KBMQ 280453Z AUTO 18009KT 10SM CLR 27/23 A2989 RMK AO2 LTG DSNT S-W SLP103 T02670228
KBMQ 280353Z AUTO 17007KT 10SM CLR 28/23 A2989 RMK AO2 SLP101 T02780228
KBMQ 280253Z AUTO 17007KT 10SM CLR 28/22 A2987 RMK AO2 SLP096 T02830222 53012
KBMQ 280153Z AUTO 15005KT 9SM CLR 29/22 A2985 RMK AO2 SLP090 T02940222
KBMQ 280053Z AUTO 15004KT 8SM CLR 31/22 A2984 RMK AO2 SLP083 T03060222
KBMQ 272353Z AUTO 17006KT 8SM CLR 33/22 A2983 RMK AO2 SLP082 T03280217 10333 20278 56014


Page loaded:  11:33 UTC  |   04:33 AM Pacific  |   05:33 AM Mountain  |   06:33 AM Central  |   07:33 AM Eastern

 

ADVISORIES

FORECASTS

FORECASTS

OBSERVATIONS

USER TOOLS

ABOUT US